createdAt,value
2022-12-07T00:01:47.135Z,13.50
2022-12-07T00:04:18.810Z,14.03
2022-12-07T00:06:53.453Z,15.67
2022-12-07T00:09:21.951Z,14.27
2022-12-07T00:11:52.088Z,13.60
2022-12-07T00:14:21.175Z,13.67
2022-12-07T00:16:52.005Z,10.10
2022-12-07T00:19:20.040Z,14.10
2022-12-07T00:21:49.419Z,13.77
2022-12-07T00:24:17.727Z,15.03
2022-12-07T00:26:46.256Z,16.37
2022-12-07T00:29:18.186Z,15.30
2022-12-07T00:31:46.809Z,13.00
2022-12-07T00:34:17.049Z,16.57
2022-12-07T00:36:45.052Z,17.13
2022-12-07T00:39:14.928Z,15.17
2022-12-07T00:41:43.194Z,12.07
2022-12-07T00:44:11.054Z,13.80
2022-12-07T00:46:39.074Z,12.83
2022-12-07T00:49:06.912Z,15.13
2022-12-07T00:51:34.764Z,16.30
2022-12-07T00:54:02.577Z,13.43
2022-12-07T00:56:31.734Z,13.33
2022-12-07T00:59:02.970Z,13.17
2022-12-07T01:01:34.456Z,13.93
2022-12-07T01:04:02.693Z,14.27
2022-12-07T01:06:31.840Z,14.90
2022-12-07T01:09:01.521Z,15.37
2022-12-07T01:11:31.769Z,13.53
2022-12-07T01:14:01.671Z,16.20
2022-12-07T01:16:32.436Z,15.67
2022-12-07T01:19:02.209Z,12.67
2022-12-07T01:21:36.019Z,16.63
2022-12-07T01:24:05.762Z,17.20
2022-12-07T01:26:34.965Z,17.33
2022-12-07T01:29:03.717Z,17.77
2022-12-07T01:31:31.551Z,14.60
2022-12-07T01:34:01.739Z,15.43
2022-12-07T01:36:32.331Z,16.53
2022-12-07T01:39:04.094Z,13.80
2022-12-07T01:41:37.109Z,19.60
2022-12-07T01:44:19.322Z,14.37
2022-12-07T01:46:49.292Z,17.70
2022-12-07T01:49:29.118Z,18.73
2022-12-07T01:52:08.920Z,14.70
2022-12-07T01:54:39.088Z,21.83
2022-12-07T01:57:10.142Z,20.37
2022-12-07T01:59:38.950Z,18.60
2022-12-07T02:02:18.631Z,22.20
2022-12-07T02:04:47.464Z,22.07
2022-12-07T02:07:16.334Z,18.17
2022-12-07T02:09:44.081Z,18.70
2022-12-07T02:12:13.382Z,19.43
2022-12-07T02:14:41.462Z,19.97
2022-12-07T02:17:20.099Z,18.63
2022-12-07T02:20:24.604Z,17.70
2022-12-07T02:23:35.580Z,22.07
2022-12-07T02:26:40.153Z,20.13
2022-12-07T02:29:23.674Z,22.87
2022-12-07T02:32:06.459Z,24.50
2022-12-07T02:34:47.734Z,24.00
2022-12-07T02:37:29.714Z,20.10
2022-12-07T02:40:05.294Z,18.97
2022-12-07T02:42:41.636Z,21.95
2022-12-07T02:45:19.732Z,21.60
2022-12-07T02:47:51.911Z,22.37
2022-12-07T02:50:21.725Z,19.87
2022-12-07T02:52:49.968Z,20.87
2022-12-07T02:55:26.930Z,24.77
2022-12-07T02:58:13.574Z,22.30
2022-12-07T03:00:53.469Z,23.60
2022-12-07T03:03:24.097Z,20.00
2022-12-07T03:06:12.740Z,25.93
2022-12-07T03:08:57.104Z,16.60
2022-12-07T03:11:34.843Z,18.93
2022-12-07T03:14:14.201Z,19.97
2022-12-07T03:16:52.359Z,18.27
2022-12-07T03:19:23.916Z,19.50
2022-12-07T03:21:58.301Z,17.30
2022-12-07T03:24:34.664Z,16.20
2022-12-07T03:27:10.623Z,19.53
2022-12-07T03:29:44.806Z,19.93
2022-12-07T03:32:22.591Z,15.30
2022-12-07T03:34:59.273Z,18.43
2022-12-07T03:37:36.178Z,15.43
2022-12-07T03:40:15.298Z,14.00
2022-12-07T03:42:43.967Z,15.50
2022-12-07T03:45:13.104Z,15.50
2022-12-07T03:47:53.224Z,12.60
2022-12-07T03:50:32.684Z,12.97
2022-12-07T03:53:12.483Z,14.50
2022-12-07T03:55:46.842Z,16.43
2022-12-07T03:58:19.897Z,17.20
2022-12-07T04:00:49.457Z,13.70
2022-12-07T04:03:18.652Z,19.60
2022-12-07T04:05:46.859Z,11.90
2022-12-07T04:08:14.675Z,10.57
2022-12-07T04:10:42.540Z,14.07
2022-12-07T04:13:10.263Z,12.43
2022-12-07T04:15:38.019Z,11.30
2022-12-07T04:18:05.888Z,20.47
2022-12-07T04:20:35.174Z,11.00
2022-12-07T04:23:03.090Z,11.57
2022-12-07T04:25:30.828Z,15.40
2022-12-07T04:27:58.711Z,15.63
2022-12-07T04:30:26.749Z,13.90
2022-12-07T04:32:54.438Z,15.77
2022-12-07T04:35:22.152Z,17.77
2022-12-07T04:37:51.332Z,16.40
2022-12-07T04:40:19.315Z,15.70
2022-12-07T04:42:47.072Z,17.83
2022-12-07T04:45:15.110Z,13.40
2022-12-07T04:47:42.825Z,16.07
2022-12-07T04:50:11.473Z,15.93
2022-12-07T04:52:39.248Z,19.20
2022-12-07T04:55:09.155Z,13.00
2022-12-07T04:57:36.991Z,12.53
2022-12-07T05:00:06.463Z,9.93
2022-12-07T05:02:34.363Z,14.50
2022-12-07T05:05:02.174Z,13.20
2022-12-07T05:07:29.923Z,12.47
2022-12-07T05:09:57.689Z,16.33
2022-12-07T05:12:26.821Z,16.50
2022-12-07T05:14:54.521Z,13.50
2022-12-07T05:17:22.298Z,13.00
2022-12-07T05:19:50.089Z,11.87
2022-12-07T05:22:18.046Z,17.00
2022-12-07T05:24:45.860Z,18.63
2022-12-07T05:27:13.991Z,10.77
2022-12-07T05:29:43.122Z,11.90
2022-12-07T05:32:10.875Z,9.20
2022-12-07T05:34:39.068Z,12.83
2022-12-07T05:37:06.784Z,10.90
2022-12-07T05:39:34.551Z,11.43
2022-12-07T05:42:14.544Z,9.83
2022-12-07T05:44:46.002Z,12.73
2022-12-07T05:47:15.836Z,9.67
2022-12-07T05:49:43.789Z,8.33
2022-12-07T05:52:11.563Z,11.23
2022-12-07T05:54:39.288Z,17.40
2022-12-07T05:57:07.181Z,15.60
2022-12-07T05:59:34.909Z,13.50
2022-12-07T06:02:08.340Z,18.17
2022-12-07T06:04:38.828Z,15.50
2022-12-07T06:07:07.736Z,22.80
2022-12-07T06:09:35.835Z,22.07
2022-12-07T06:12:24.327Z,18.63
2022-12-07T06:14:52.348Z,19.67
2022-12-07T06:17:21.445Z,17.57
2022-12-07T06:19:49.663Z,20.97
2022-12-07T06:22:18.454Z,21.57
2022-12-07T06:24:46.297Z,18.47
2022-12-07T06:27:14.574Z,21.57
2022-12-07T06:29:42.318Z,18.50
2022-12-07T06:32:10.336Z,20.00
2022-12-07T06:34:39.809Z,25.33
2022-12-07T06:37:08.448Z,20.00
2022-12-07T06:39:36.258Z,14.90
2022-12-07T06:42:04.312Z,20.70
2022-12-07T06:44:32.231Z,15.50
2022-12-07T06:47:24.918Z,16.53
2022-12-07T06:49:49.141Z,15.00
2022-12-07T06:52:16.831Z,17.90
2022-12-07T06:54:45.573Z,17.03
2022-12-07T06:57:13.322Z,18.63
2022-12-07T06:59:41.000Z,18.27
2022-12-07T07:02:10.117Z,21.87
2022-12-07T07:04:38.074Z,22.67
2022-12-07T07:07:07.231Z,22.93
2022-12-07T07:09:34.954Z,19.60
2022-12-07T07:12:02.758Z,22.37
2022-12-07T07:14:30.525Z,17.53
2022-12-07T07:16:58.260Z,20.43
2022-12-07T07:19:29.926Z,20.13
2022-12-07T07:22:00.559Z,18.73
2022-12-07T07:24:29.778Z,18.47
2022-12-07T07:26:57.585Z,14.30
2022-12-07T07:29:25.534Z,20.47
2022-12-07T07:31:54.089Z,18.93
2022-12-07T07:34:21.806Z,17.47
2022-12-07T07:36:49.460Z,15.53
2022-12-07T07:39:17.250Z,14.20
2022-12-07T07:41:47.730Z,13.90
2022-12-07T07:44:27.860Z,14.20
2022-12-07T07:46:59.595Z,18.03
2022-12-07T07:49:27.827Z,12.13
2022-12-07T07:51:55.583Z,14.80
2022-12-07T07:54:23.521Z,19.47
2022-12-07T07:56:55.365Z,13.57
2022-12-07T07:59:23.852Z,14.23
2022-12-07T08:01:51.868Z,16.73
2022-12-07T08:04:19.843Z,17.87
2022-12-07T08:06:47.760Z,24.13
2022-12-07T08:09:15.435Z,19.10
2022-12-07T08:11:43.248Z,16.00
2022-12-07T08:14:12.511Z,19.63
2022-12-07T08:16:40.304Z,21.07
2022-12-07T08:19:08.795Z,15.90
2022-12-07T08:21:36.562Z,19.80
2022-12-07T08:24:05.282Z,16.40
2022-12-07T08:26:33.139Z,20.07
2022-12-07T08:29:01.018Z,18.57
2022-12-07T08:31:30.540Z,19.37
2022-12-07T08:33:58.524Z,17.50
2022-12-07T08:36:28.082Z,14.83
2022-12-07T08:39:29.821Z,16.10
2022-12-07T08:41:43.772Z,16.83
2022-12-07T08:44:11.557Z,15.33
2022-12-07T08:46:48.901Z,14.53
2022-12-07T08:49:26.957Z,12.43
2022-12-07T08:51:56.636Z,12.80
2022-12-07T08:54:24.810Z,12.70
2022-12-07T08:56:58.995Z,11.97
2022-12-07T08:59:29.546Z,11.80
2022-12-07T09:01:58.754Z,18.13
2022-12-07T09:04:27.090Z,15.70
2022-12-07T09:06:56.274Z,10.20
2022-12-07T09:09:27.171Z,11.50
2022-12-07T09:11:55.168Z,11.30
2022-12-07T09:14:23.157Z,11.20
2022-12-07T09:16:54.121Z,13.33
2022-12-07T09:19:23.854Z,16.20
2022-12-07T09:21:51.601Z,14.03
2022-12-07T09:24:19.386Z,18.07
2022-12-07T09:26:47.172Z,11.73
2022-12-07T09:29:15.029Z,13.43
2022-12-07T09:31:42.894Z,14.70
2022-12-07T09:34:10.956Z,9.33
2022-12-07T09:36:40.099Z,10.33
2022-12-07T09:39:07.870Z,11.83
2022-12-07T09:41:40.616Z,7.67
2022-12-07T09:44:16.380Z,12.93
2022-12-07T09:49:20.050Z,12.57
2022-12-07T09:52:01.783Z,8.47
2022-12-07T09:54:31.635Z,10.93
2022-12-07T09:57:00.558Z,10.93
2022-12-07T09:59:32.377Z,11.10
2022-12-07T10:02:28.805Z,17.50
2022-12-07T10:04:59.576Z,12.47
2022-12-07T10:07:28.945Z,8.37
2022-12-07T10:09:56.746Z,12.17
2022-12-07T10:12:24.781Z,10.00
2022-12-07T10:15:07.291Z,11.50
2022-12-07T10:17:44.259Z,9.03
2022-12-07T10:20:21.742Z,10.47
2022-12-07T10:23:02.490Z,15.87
2022-12-07T10:25:34.245Z,9.30
2022-12-07T10:28:13.472Z,10.10
2022-12-07T10:31:00.147Z,9.80
2022-12-07T10:33:32.354Z,12.47
2022-12-07T10:36:16.277Z,9.03
2022-12-07T10:38:49.468Z,14.67
2022-12-07T10:41:17.389Z,8.97
2022-12-07T10:43:53.196Z,12.43
2022-12-07T10:46:52.461Z,10.00
2022-12-07T10:49:49.513Z,9.07
2022-12-07T10:52:37.718Z,10.03
2022-12-07T10:55:22.807Z,10.30
2022-12-07T10:58:24.519Z,6.20
2022-12-07T11:01:07.168Z,6.97
2022-12-07T11:03:49.322Z,9.27
2022-12-07T11:06:31.215Z,7.23
2022-12-07T11:09:44.840Z,5.57
2022-12-07T11:12:29.349Z,6.73
2022-12-07T11:15:05.449Z,8.03
2022-12-07T11:17:48.047Z,9.17
2022-12-07T11:20:37.257Z,6.37
2022-12-07T11:23:20.637Z,7.50
2022-12-07T11:26:02.728Z,10.03
2022-12-07T11:28:59.998Z,6.17
2022-12-07T11:31:53.935Z,10.10
2022-12-07T11:34:37.447Z,12.10
2022-12-07T11:37:14.837Z,9.50
2022-12-07T11:39:51.280Z,5.17
2022-12-07T11:42:26.213Z,8.60
2022-12-07T11:45:03.047Z,5.75
2022-12-07T11:47:42.157Z,6.23
2022-12-07T11:50:37.388Z,7.97
2022-12-07T11:53:17.008Z,7.33
2022-12-07T11:55:53.854Z,5.27
2022-12-07T11:58:45.552Z,6.37
2022-12-07T12:01:48.944Z,5.67
2022-12-07T12:04:31.802Z,8.40
2022-12-07T12:10:03.885Z,6.27
2022-12-07T12:16:44.261Z,7.77
2022-12-07T12:19:35.650Z,5.20
2022-12-07T12:22:16.296Z,7.87
2022-12-07T12:24:47.998Z,8.70
2022-12-07T12:27:25.839Z,4.97
2022-12-07T12:29:57.344Z,6.97
2022-12-07T12:32:39.098Z,7.40
2022-12-07T12:35:31.429Z,6.80
2022-12-07T12:38:31.832Z,8.27
2022-12-07T12:41:01.672Z,5.13
2022-12-07T12:43:53.390Z,7.97
2022-12-07T12:46:50.850Z,3.83
2022-12-07T12:49:38.050Z,7.43
2022-12-07T12:53:01.713Z,7.13
2022-12-07T12:56:24.677Z,8.03
2022-12-07T12:59:27.269Z,8.40
2022-12-07T13:02:15.878Z,7.20
2022-12-07T13:04:56.179Z,4.53
2022-12-07T13:07:57.806Z,6.97
2022-12-07T13:11:20.525Z,6.03
2022-12-07T13:13:48.351Z,10.07
2022-12-07T13:16:41.075Z,8.73
2022-12-07T13:20:00.339Z,7.00
2022-12-07T13:22:59.128Z,6.23
2022-12-07T13:25:45.668Z,6.53
2022-12-07T13:28:19.764Z,8.80
2022-12-07T13:31:04.627Z,5.67
2022-12-07T13:33:36.035Z,5.27
2022-12-07T13:36:13.307Z,6.53
2022-12-07T13:38:53.331Z,7.77
2022-12-07T13:41:23.803Z,7.63
2022-12-07T13:44:03.045Z,8.63
2022-12-07T13:46:58.417Z,5.57
2022-12-07T13:49:29.990Z,9.30
2022-12-07T13:52:17.758Z,5.40
2022-12-07T13:54:49.690Z,9.40
2022-12-07T13:57:18.564Z,7.43
2022-12-07T13:59:47.110Z,8.37
2022-12-07T14:02:22.323Z,8.50
2022-12-07T14:04:52.606Z,17.02
2022-12-07T14:07:26.636Z,13.80
2022-12-07T14:09:58.055Z,23.63
2022-12-07T14:12:28.254Z,7.53
2022-12-07T14:14:59.005Z,10.47
2022-12-07T14:17:28.649Z,6.53
2022-12-07T14:20:00.399Z,6.17
2022-12-07T14:22:34.658Z,5.40
2022-12-07T14:25:21.728Z,4.80
2022-12-07T14:27:57.368Z,4.97
2022-12-07T14:30:28.828Z,7.00
2022-12-07T14:33:01.135Z,4.97
2022-12-07T14:35:31.223Z,6.60
2022-12-07T14:38:03.541Z,3.73
2022-12-07T14:40:32.384Z,5.63
2022-12-07T14:43:07.546Z,4.93
2022-12-07T14:45:35.610Z,7.18
2022-12-07T14:53:56.781Z,5.53
2022-12-07T14:56:25.646Z,7.97
2022-12-07T14:58:53.403Z,4.93
2022-12-07T15:01:21.314Z,5.87
2022-12-07T15:03:49.283Z,7.93
2022-12-07T15:06:19.472Z,9.90
2022-12-07T15:08:48.744Z,4.77
2022-12-07T15:11:18.882Z,4.50
2022-12-07T15:14:05.294Z,7.27
2022-12-07T15:17:06.235Z,5.40
2022-12-07T15:19:28.571Z,7.47
2022-12-07T15:21:59.207Z,9.30
2022-12-07T15:24:28.404Z,7.20
2022-12-07T15:26:56.217Z,4.90
2022-12-07T15:29:24.450Z,6.17
2022-12-07T15:31:57.106Z,10.10
2022-12-07T15:34:27.583Z,6.70
2022-12-07T15:36:55.587Z,7.60
2022-12-07T15:39:23.421Z,9.77
2022-12-07T15:41:52.576Z,9.10
2022-12-07T15:44:38.688Z,8.60
2022-12-07T15:49:34.703Z,8.53
2022-12-07T15:52:02.623Z,11.23
2022-12-07T15:58:02.089Z,8.70
2022-12-07T16:00:29.852Z,5.50
2022-12-07T16:02:57.786Z,9.30
2022-12-07T16:05:25.754Z,9.70
2022-12-07T16:07:53.457Z,12.70
2022-12-07T16:10:21.208Z,8.83
2022-12-07T16:12:48.998Z,9.43
2022-12-07T16:15:22.991Z,15.37
2022-12-07T16:17:52.657Z,11.32
2022-12-07T16:20:20.521Z,13.50
2022-12-07T16:22:48.272Z,12.57
2022-12-07T16:25:16.417Z,9.40
2022-12-07T16:27:44.138Z,10.00
2022-12-07T16:30:14.886Z,7.27
2022-12-07T16:32:44.676Z,10.70
2022-12-07T16:35:13.441Z,7.83
2022-12-07T16:37:43.269Z,14.10
2022-12-07T16:40:13.169Z,10.77
2022-12-07T16:42:40.913Z,7.37
2022-12-07T16:45:09.660Z,14.63
2022-12-07T16:47:39.026Z,10.07
2022-12-07T16:50:09.690Z,13.03
2022-12-07T16:52:37.446Z,9.23
2022-12-07T16:55:06.739Z,7.90
2022-12-07T16:57:34.799Z,11.23
2022-12-07T17:00:05.057Z,11.23
2022-12-07T17:02:32.926Z,11.47
2022-12-07T17:05:00.850Z,11.27
2022-12-07T17:07:30.334Z,9.07
2022-12-07T17:09:58.088Z,11.03
2022-12-07T17:12:26.772Z,12.47
2022-12-07T17:15:13.334Z,10.10
2022-12-07T17:17:41.172Z,9.83
2022-12-07T17:20:10.407Z,9.33
2022-12-07T17:22:39.700Z,10.00
2022-12-07T17:25:08.246Z,14.13
2022-12-07T17:27:36.958Z,14.13
2022-12-07T17:30:06.917Z,11.67
2022-12-07T17:32:34.767Z,9.70
2022-12-07T17:35:02.752Z,13.30
2022-12-07T17:37:31.976Z,12.60
2022-12-07T17:40:01.242Z,8.53
2022-12-07T17:42:37.871Z,9.73
2022-12-07T17:45:09.964Z,8.30
2022-12-07T17:47:38.711Z,9.37
2022-12-07T17:50:09.318Z,12.73
2022-12-07T17:52:57.918Z,10.50
2022-12-07T17:55:27.190Z,8.57
2022-12-07T17:57:55.108Z,10.10
2022-12-07T18:00:23.335Z,9.27
2022-12-07T18:02:51.120Z,11.23
2022-12-07T18:05:19.119Z,8.40
2022-12-07T18:07:47.041Z,9.97
2022-12-07T18:10:15.040Z,7.63
2022-12-07T18:12:48.896Z,7.67
2022-12-07T18:15:19.644Z,11.17
2022-12-07T18:17:47.484Z,9.23
2022-12-07T18:20:15.573Z,11.13
2022-12-07T18:22:43.234Z,8.80
2022-12-07T18:25:11.084Z,9.17
2022-12-07T18:27:38.847Z,17.97
2022-12-07T18:30:09.543Z,13.17
2022-12-07T18:32:37.657Z,9.07
2022-12-07T18:35:07.710Z,12.10
2022-12-07T18:37:35.608Z,12.20
2022-12-07T18:40:04.058Z,8.47
2022-12-07T18:42:31.818Z,9.70
2022-12-07T18:44:59.575Z,16.23
2022-12-07T18:47:28.850Z,8.97
2022-12-07T18:49:56.677Z,6.93
2022-12-07T18:52:24.711Z,6.33
2022-12-07T18:54:52.466Z,8.93
2022-12-07T18:57:20.346Z,11.60
2022-12-07T18:59:49.398Z,6.87
2022-12-07T19:02:19.076Z,7.60
2022-12-07T19:04:48.349Z,6.83
2022-12-07T19:07:17.155Z,5.90
2022-12-07T19:09:45.080Z,9.97
2022-12-07T19:12:14.002Z,8.87
2022-12-07T19:14:41.921Z,8.07
2022-12-07T19:17:12.583Z,12.83
2022-12-07T19:19:43.287Z,8.90
2022-12-07T19:22:16.093Z,10.43
2022-12-07T19:24:46.513Z,7.70
2022-12-07T19:27:15.889Z,11.70
2022-12-07T19:29:46.812Z,8.70
2022-12-07T19:32:17.341Z,12.10
2022-12-07T19:34:47.828Z,8.30
2022-12-07T19:37:18.547Z,10.17
2022-12-07T19:39:48.232Z,14.37
2022-12-07T19:42:16.068Z,10.63
2022-12-07T19:44:43.884Z,13.00
2022-12-07T19:47:15.560Z,11.40
2022-12-07T19:49:45.072Z,10.70
2022-12-07T19:52:14.351Z,10.90
2022-12-07T19:54:43.493Z,9.97
2022-12-07T19:57:15.765Z,10.40
2022-12-07T19:59:43.979Z,9.90
2022-12-07T20:02:14.242Z,12.97
2022-12-07T20:04:42.611Z,10.73
2022-12-07T20:07:10.486Z,10.90
2022-12-07T20:09:38.392Z,12.63
2022-12-07T20:12:28.498Z,11.37
2022-12-07T20:14:56.395Z,9.60
2022-12-07T20:17:24.352Z,10.70
2022-12-07T20:19:52.071Z,12.93
2022-12-07T20:22:19.816Z,14.17
2022-12-07T20:24:47.549Z,16.37
2022-12-07T20:27:17.711Z,13.20
2022-12-07T20:29:45.703Z,11.17
2022-12-07T20:32:13.814Z,14.40
2022-12-07T20:34:41.970Z,11.77
2022-12-07T20:37:09.669Z,14.60
2022-12-07T20:39:37.449Z,12.43
2022-12-07T20:42:24.230Z,12.17
2022-12-07T20:44:57.019Z,14.93
2022-12-07T20:47:27.545Z,16.67
2022-12-07T20:49:55.259Z,13.00
2022-12-07T20:52:23.055Z,15.87
2022-12-07T20:54:50.793Z,13.80
2022-12-07T20:57:18.524Z,18.10
2022-12-07T20:59:46.344Z,14.17
2022-12-07T21:02:15.584Z,12.60
2022-12-07T21:04:43.313Z,16.67
2022-12-07T21:07:10.992Z,13.40
2022-12-07T21:09:39.171Z,18.73
2022-12-07T21:12:11.079Z,16.57
2022-12-07T21:14:42.959Z,16.17
2022-12-07T21:17:11.121Z,13.10
2022-12-07T21:19:40.998Z,16.83
2022-12-07T21:22:08.780Z,16.43
2022-12-07T21:24:38.789Z,15.60
2022-12-07T21:27:07.624Z,15.77
2022-12-07T21:29:43.932Z,14.67
2022-12-07T21:32:14.486Z,14.37
2022-12-07T21:34:43.821Z,14.40
2022-12-07T21:37:11.642Z,16.23
2022-12-07T21:39:39.368Z,21.07
2022-12-07T21:42:07.148Z,13.67
2022-12-07T21:44:35.092Z,14.33
2022-12-07T21:47:03.077Z,18.23
2022-12-07T21:49:31.272Z,17.60
2022-12-07T21:52:00.463Z,17.50
2022-12-07T21:54:28.161Z,15.90
2022-12-07T21:56:56.030Z,15.40
2022-12-07T21:59:23.949Z,16.13
2022-12-07T22:01:52.856Z,13.90
2022-12-07T22:04:24.001Z,15.90
2022-12-07T22:06:53.851Z,15.53
2022-12-07T22:09:27.187Z,15.40
2022-12-07T22:11:55.065Z,18.07
2022-12-07T22:14:41.432Z,19.83
2022-12-07T22:17:09.295Z,14.30
2022-12-07T22:19:37.044Z,18.10
2022-12-07T22:22:05.117Z,16.90
2022-12-07T22:24:34.268Z,16.13
2022-12-07T22:27:02.212Z,14.37
2022-12-07T22:29:29.994Z,14.53
2022-12-07T22:31:57.866Z,13.57
2022-12-07T22:34:25.693Z,14.50
2022-12-07T22:36:53.507Z,16.27
2022-12-07T22:39:21.286Z,14.50
2022-12-07T22:41:50.578Z,13.87
2022-12-07T22:44:19.041Z,15.27
2022-12-07T22:46:47.071Z,16.43
2022-12-07T22:49:15.386Z,16.40
2022-12-07T22:51:44.505Z,17.47
2022-12-07T22:54:16.699Z,15.30
2022-12-07T22:56:45.561Z,17.37
2022-12-07T22:59:14.653Z,16.73
2022-12-07T23:01:42.515Z,15.63
2022-12-07T23:04:10.436Z,20.03
2022-12-07T23:06:38.353Z,16.80
2022-12-07T23:09:10.281Z,17.77
2022-12-07T23:12:00.157Z,14.73
2022-12-07T23:14:33.104Z,17.67
2022-12-07T23:17:01.450Z,17.63
2022-12-07T23:19:29.974Z,17.93
2022-12-07T23:21:57.893Z,18.07
2022-12-07T23:24:26.208Z,18.80
2022-12-07T23:26:54.090Z,23.47
2022-12-07T23:29:21.900Z,17.83
2022-12-07T23:31:51.251Z,18.23
2022-12-07T23:34:19.021Z,20.47
2022-12-07T23:36:46.819Z,22.70
2022-12-07T23:39:14.569Z,21.37
2022-12-07T23:41:42.478Z,23.67
2022-12-07T23:44:11.790Z,26.70
2022-12-07T23:46:39.571Z,19.37
2022-12-07T23:49:09.036Z,21.33
2022-12-07T23:51:37.004Z,22.77
2022-12-07T23:54:05.301Z,23.43
2022-12-07T23:56:34.604Z,24.43
2022-12-07T23:59:03.239Z,27.03
